Robert G. Stone, Jr. — WDD4596 — position and weather

sailwx.info

Track history (hours):
 
Tides and Currents Weather Stations Pressure Air Temp Water Temp Dewpoint Dewpoint Depression Visibility Wind Speed Wind Dir Waves Ship Positions

Robert G. Stone, Jr.

Owner: Kirby Inland Marine, LP, Houston, TX. More information available from US FCC via Universal Licensing System and Coast Guard Vessel Documentation Center.

Last reported at 2017-Jan-17 00:05 UTC. Time now 2017-Jan-17 17:21 UTC.
Position N 29°50' W 091°59'.

Length 118 m; draft 2.7 m.

Type: . MMSI: 367146780.

Date/timePositionNaut miles runAvg speedWind from/ knotsBaromVisibWave heightAir tempDewpointWater temp
2017-Jan-17 00:05N 29°50' W 091°59'3 5.7
2017-Jan-16 23:33N 29°49' W 092°02'5 5.4
2017-Jan-16 22:33N 29°47' W 092°08'6 5.6
2017-Jan-16 21:33N 29°48' W 092°14'5 4.6
2017-Jan-16 20:33N 29°50' W 092°19'5 4.8
2017-Jan-16 19:33N 29°53' W 092°24'6 5.5
2017-Jan-16 18:33N 29°54' W 092°30'31 5.0
2017-Jan-16 12:18N 29°56' W 093°06'4 4.8
2017-Jan-16 11:33N 29°56' W 093°10'5 5.0
2017-Jan-16 10:33N 30°00' W 093°14'4 4.3
2017-Jan-16 09:33N 30°04' W 093°16'3 3.0
2017-Jan-16 08:33N 30°06' W 093°19'4 3.7
2017-Jan-16 07:33N 30°04' W 093°22'5 4.5
2017-Jan-16 06:33N 30°04' W 093°27'5 4.9
2017-Jan-16 05:33N 30°04' W 093°33'5 5.2
2017-Jan-16 04:33N 30°04' W 093°39'88 3.0
2017-Jan-14 23:09N 29°13' W 095°02'0 0.0
2017-Jan-14 22:33N 29°13' W 095°02'0 0.0
2017-Jan-14 21:32N 29°13' W 095°02'0 0.0
2017-Jan-14 20:29N 29°13' W 095°02'7 0.3
2017-Jan-13 17:26N 29°12' W 095°10'27 1.5
2017-Jan-12 23:18N 29°25' W 094°43'10 1.5
2017-Jan-12 16:33N 29°31' W 094°53'8 8.4
2017-Jan-12 15:33N 29°38' W 094°58'7 7.1
2017-Jan-12 14:33N 29°44' W 095°03'3 0.3
2017-Jan-12 05:08N 29°46' W 095°05'0 0.0
2017-Jan-12 00:32N 29°46' W 095°05'0 0.2
2017-Jan-11 23:33N 29°46' W 095°05'0 0.2
2017-Jan-11 22:33N 29°46' W 095°05'0 0.0
2017-Jan-11 21:34N 29°46' W 095°05'0 0.0
2017-Jan-11 20:34N 29°46' W 095°05'0 0.0
2017-Jan-11 19:34N 29°46' W 095°05'0 0.0
2017-Jan-11 18:34N 29°46' W 095°05'0 0.0
2017-Jan-11 17:34N 29°46' W 095°05'1 0.6
2017-Jan-11 15:33N 29°45' W 095°06'0 0.1
2017-Jan-11 14:32N 29°45' W 095°06'1 1.1
2017-Jan-11 13:33N 29°46' W 095°05'0 0.0
2017-Jan-11 07:33N 29°46' W 095°05'3 2.4
2017-Jan-11 06:27N 29°44' W 095°03'5 5.7
2017-Jan-11 05:32N 29°40' W 094°59'9 8.2
2017-Jan-11 04:30N 29°33' W 094°54'12 2.0
2017-Jan-10 22:25N 29°26' W 094°43'8 0.4
2017-Jan-10 04:04N 29°29' W 094°52'4 6.9
2017-Jan-10 03:33N 29°32' W 094°54'6 6.5
2017-Jan-10 02:34N 29°38' W 094°58'1 1.2
2017-Jan-10 01:34N 29°39' W 094°58'8 8.0
2017-Jan-10 00:34N 29°32' W 094°54'11 7.8
2017-Jan-09 23:10N 29°23' W 094°47'4 6.3
2017-Jan-09 22:33N 29°25' W 094°43'66 6.6
2017-Jan-09 12:34N 30°04' W 093°41'7 6.6
2017-Jan-09 11:34N 30°04' W 093°33'6 6.4
2017-Jan-09 10:34N 30°04' W 093°26'6 5.8
2017-Jan-09 09:34N 30°06' W 093°19'1 1.0
2017-Jan-09 08:34N 30°06' W 093°18'2 1.8
2017-Jan-09 07:33N 30°05' W 093°17'3 3.0
2017-Jan-09 06:34N 30°02' W 093°15'6 6.4
2017-Jan-09 05:34N 29°57' W 093°10'7 6.5
2017-Jan-09 04:33N 29°56' W 093°03'8 6.9
2017-Jan-09 03:22N 29°57' W 092°53'24 6.1
2017-Jan-08 23:29N 29°53' W 092°26'4 4.7
2017-Jan-08 22:33N 29°51' W 092°22'5 4.5
2017-Jan-08 21:33N 29°49' W 092°17'5 5.2
2017-Jan-08 20:34N 29°47' W 092°12'5 4.8
2017-Jan-08 19:34N 29°48' W 092°06'6 5.7
2017-Jan-08 18:34N 29°50' W 092°00'  
Track history (hours):
 
Tides and Currents Weather Stations Pressure Air Temp Water Temp Dewpoint Dewpoint Depression Visibility Wind Speed Wind Dir Waves Ship Positions

Robert G. Stone, Jr.

Owner: Kirby Inland Marine, LP, Houston, TX. More information available from US FCC via Universal Licensing System and Coast Guard Vessel Documentation Center.

Last reported at 2017-Jan-17 00:05 UTC. Time now 2017-Jan-17 17:21 UTC.
Position N 29°50' W 091°59'.

Length 118 m; draft 2.7 m.

Type: . MMSI: 367146780.

Date/timePositionNaut miles runAvg speedWind from/ knotsBaromVisibWave heightAir tempDewpointWater temp
2017-Jan-17 00:05N 29°50' W 091°59'3 5.7
2017-Jan-16 23:33N 29°49' W 092°02'5 5.4
2017-Jan-16 22:33N 29°47' W 092°08'6 5.6
2017-Jan-16 21:33N 29°48' W 092°14'5 4.6
2017-Jan-16 20:33N 29°50' W 092°19'5 4.8
2017-Jan-16 19:33N 29°53' W 092°24'6 5.5
2017-Jan-16 18:33N 29°54' W 092°30'31 5.0
2017-Jan-16 12:18N 29°56' W 093°06'4 4.8
2017-Jan-16 11:33N 29°56' W 093°10'5 5.0
2017-Jan-16 10:33N 30°00' W 093°14'4 4.3
2017-Jan-16 09:33N 30°04' W 093°16'3 3.0
2017-Jan-16 08:33N 30°06' W 093°19'4 3.7
2017-Jan-16 07:33N 30°04' W 093°22'5 4.5
2017-Jan-16 06:33N 30°04' W 093°27'5 4.9
2017-Jan-16 05:33N 30°04' W 093°33'5 5.2
2017-Jan-16 04:33N 30°04' W 093°39'88 3.0
2017-Jan-14 23:09N 29°13' W 095°02'0 0.0
2017-Jan-14 22:33N 29°13' W 095°02'0 0.0
2017-Jan-14 21:32N 29°13' W 095°02'0 0.0
2017-Jan-14 20:29N 29°13' W 095°02'7 0.3
2017-Jan-13 17:26N 29°12' W 095°10'27 1.5
2017-Jan-12 23:18N 29°25' W 094°43'10 1.5
2017-Jan-12 16:33N 29°31' W 094°53'8 8.4
2017-Jan-12 15:33N 29°38' W 094°58'7 7.1
2017-Jan-12 14:33N 29°44' W 095°03'3 0.3
2017-Jan-12 05:08N 29°46' W 095°05'0 0.0
2017-Jan-12 00:32N 29°46' W 095°05'0 0.2
2017-Jan-11 23:33N 29°46' W 095°05'0 0.2
2017-Jan-11 22:33N 29°46' W 095°05'0 0.0
2017-Jan-11 21:34N 29°46' W 095°05'0 0.0
2017-Jan-11 20:34N 29°46' W 095°05'0 0.0
2017-Jan-11 19:34N 29°46' W 095°05'0 0.0
2017-Jan-11 18:34N 29°46' W 095°05'0 0.0
2017-Jan-11 17:34N 29°46' W 095°05'1 0.6
2017-Jan-11 15:33N 29°45' W 095°06'0 0.1
2017-Jan-11 14:32N 29°45' W 095°06'1 1.1
2017-Jan-11 13:33N 29°46' W 095°05'0 0.0
2017-Jan-11 07:33N 29°46' W 095°05'3 2.4
2017-Jan-11 06:27N 29°44' W 095°03'5 5.7
2017-Jan-11 05:32N 29°40' W 094°59'9 8.2
2017-Jan-11 04:30N 29°33' W 094°54'12 2.0
2017-Jan-10 22:25N 29°26' W 094°43'8 0.4
2017-Jan-10 04:04N 29°29' W 094°52'4 6.9
2017-Jan-10 03:33N 29°32' W 094°54'6 6.5
2017-Jan-10 02:34N 29°38' W 094°58'1 1.2
2017-Jan-10 01:34N 29°39' W 094°58'8 8.0
2017-Jan-10 00:34N 29°32' W 094°54'11 7.8
2017-Jan-09 23:10N 29°23' W 094°47'4 6.3
2017-Jan-09 22:33N 29°25' W 094°43'66 6.6
2017-Jan-09 12:34N 30°04' W 093°41'7 6.6
2017-Jan-09 11:34N 30°04' W 093°33'6 6.4
2017-Jan-09 10:34N 30°04' W 093°26'6 5.8
2017-Jan-09 09:34N 30°06' W 093°19'1 1.0
2017-Jan-09 08:34N 30°06' W 093°18'2 1.8
2017-Jan-09 07:33N 30°05' W 093°17'3 3.0
2017-Jan-09 06:34N 30°02' W 093°15'6 6.4
2017-Jan-09 05:34N 29°57' W 093°10'7 6.5
2017-Jan-09 04:33N 29°56' W 093°03'8 6.9
2017-Jan-09 03:22N 29°57' W 092°53'24 6.1
2017-Jan-08 23:29N 29°53' W 092°26'4 4.7
2017-Jan-08 22:33N 29°51' W 092°22'5 4.5
2017-Jan-08 21:33N 29°49' W 092°17'5 5.2
2017-Jan-08 20:34N 29°47' W 092°12'5 4.8
2017-Jan-08 19:34N 29°48' W 092°06'6 5.7
2017-Jan-08 18:34N 29°50' W 092°00'  

Dump ship's entire track history